Time;durP1;ratioP1;P1;durP2;ratioP2;P2;SDS_P1;SDS_P2;PMS_P1;PMS_P2;Temp;Humidity;BMP_temperature;BMP_pressure;BME280_temperature;BME280_humidity;BME280_pressure;Samples;Min_cycle;Max_cycle;Signal;HPM_P1;HPM_P2
2022/01/01 00:00:14;;;;;;;16.77;7.43;;;6.80;99.90;;;;;;4991350;28;20191;-69
2022/01/01 00:02:40;;;;;;;14.30;5.13;;;6.70;99.90;;;;;;4991969;28;20202;-69
2022/01/01 00:05:07;;;;;;;9.03;4.60;;;6.70;99.90;;;;;;4992912;28;20760;-69
2022/01/01 00:07:39;;;;;;;8.57;3.57;;;6.70;99.90;;;;;;4992990;28;20439;-69
2022/01/01 00:10:05;;;;;;;13.90;3.77;;;6.70;99.90;;;;;;4992475;28;20899;-69
2022/01/01 00:12:31;;;;;;;8.47;3.60;;;6.70;99.90;;;;;;4994073;28;20427;-69
2022/01/01 00:14:57;;;;;;;4.90;2.77;;;6.70;99.90;;;;;;4993838;28;20441;-69
2022/01/01 00:17:22;;;;;;;5.37;2.43;;;6.70;99.90;;;;;;4993358;28;20185;-69
2022/01/01 00:19:48;;;;;;;6.47;2.83;;;6.70;99.90;;;;;;4995434;28;20198;-69
2022/01/01 00:22:14;;;;;;;7.10;2.90;;;6.60;99.90;;;;;;4995012;28;20591;-70
2022/01/01 00:24:39;;;;;;;7.50;2.17;;;6.60;99.90;;;;;;4996343;28;20294;-70
2022/01/01 00:27:05;;;;;;;7.53;3.17;;;6.50;99.90;;;;;;4995515;28;20203;-69
2022/01/01 00:29:31;;;;;;;4.10;1.93;;;6.40;99.90;;;;;;4997635;28;20219;-70
2022/01/01 00:31:56;;;;;;;7.87;3.30;;;6.30;99.90;;;;;;4996488;28;20696;-70
2022/01/01 00:34:22;;;;;;;7.33;2.50;;;6.20;99.90;;;;;;5000345;28;20183;-71
2022/01/01 00:36:48;;;;;;;6.60;2.87;;;6.10;99.90;;;;;;4998249;28;20196;-70
2022/01/01 00:39:13;;;;;;;6.77;3.60;;;6.00;99.90;;;;;;4988643;28;20559;-70
2022/01/01 00:41:39;;;;;;;5.37;3.07;;;6.00;99.90;;;;;;4989744;28;20222;-70
2022/01/01 00:44:05;;;;;;;5.00;2.60;;;5.80;99.90;;;;;;4989342;28;20199;-70
2022/01/01 00:46:31;;;;;;;11.03;3.60;;;5.90;99.90;;;;;;4989995;28;20188;-70
2022/01/01 00:48:56;;;;;;;8.77;3.73;;;5.90;99.90;;;;;;4993312;28;20471;-70
2022/01/01 00:51:22;;;;;;;8.00;3.10;;;5.90;99.90;;;;;;4989933;28;20255;-70
2022/01/01 00:53:49;;;;;;;4.80;2.33;;;5.80;99.90;;;;;;4989710;28;20190;-70
2022/01/01 00:56:15;;;;;;;8.33;3.57;;;5.70;99.90;;;;;;4991570;28;20446;-70
2022/01/01 00:58:40;;;;;;;9.07;3.67;;;5.70;99.90;;;;;;4991157;28;20916;-70
2022/01/01 01:01:07;;;;;;;6.07;3.37;;;5.60;99.90;;;;;;4992716;28;20192;-70
2022/01/01 01:03:33;;;;;;;7.80;3.30;;;5.50;99.90;;;;;;4992772;28;20191;-70
2022/01/01 01:05:59;;;;;;;10.73;4.10;;;5.40;99.90;;;;;;4989414;28;20473;-70
2022/01/01 01:08:26;;;;;;;7.47;4.10;;;5.40;99.90;;;;;;4992716;28;20219;-70
2022/01/01 01:10:52;;;;;;;5.83;3.73;;;5.40;99.90;;;;;;4991614;28;20924;-70
2022/01/01 01:13:20;;;;;;;9.07;3.67;;;5.40;99.90;;;;;;4996381;28;20999;-70
2022/01/01 01:15:46;;;;;;;17.50;5.07;;;5.30;99.90;;;;;;4995405;28;20950;-70
2022/01/01 01:18:13;;;;;;;8.40;4.57;;;5.30;99.90;;;;;;4993528;28;20625;-70
2022/01/01 01:20:39;;;;;;;17.43;6.40;;;5.30;99.90;;;;;;4995591;28;20522;-70
2022/01/01 01:23:05;;;;;;;16.67;7.33;;;5.30;99.90;;;;;;4993766;28;20470;-70
2022/01/01 01:25:38;;;;;;;23.53;9.30;;;5.30;99.90;;;;;;5001040;28;20430;-70
2022/01/01 01:28:08;;;;;;;18.73;6.90;;;5.30;99.90;;;;;;4995384;28;20442;-70
2022/01/01 01:30:35;;;;;;;18.57;8.27;;;5.30;99.90;;;;;;4994253;28;20435;-70
2022/01/01 01:33:01;;;;;;;19.87;7.27;;;5.20;99.90;;;;;;4987425;28;20501;-70
2022/01/01 01:35:27;;;;;;;22.70;8.17;;;5.30;99.90;;;;;;4988049;28;20498;-70
2022/01/01 01:37:53;;;;;;;12.80;6.17;;;5.20;99.90;;;;;;4987812;28;20911;-70
2022/01/01 01:40:19;;;;;;;21.43;7.70;;;5.10;99.90;;;;;;4988861;28;20239;-71
2022/01/01 01:42:45;;;;;;;18.10;6.40;;;5.00;99.90;;;;;;4988850;28;20198;-68
2022/01/01 01:45:15;;;;;;;17.70;6.83;;;5.00;99.90;;;;;;4990297;28;20194;-71
2022/01/01 01:47:42;;;;;;;13.97;6.17;;;5.00;99.90;;;;;;4990644;28;20461;-68
2022/01/01 01:50:10;;;;;;;17.40;7.20;;;4.90;99.90;;;;;;4993172;28;20465;-71
2022/01/01 01:52:37;;;;;;;21.73;6.30;;;4.90;99.90;;;;;;4990073;28;20423;-68
2022/01/01 01:55:08;;;;;;;12.40;4.90;;;4.90;99.90;;;;;;4990122;28;20429;-68
2022/01/01 01:57:39;;;;;;;14.90;6.57;;;4.80;99.90;;;;;;4990013;28;20446;-69
2022/01/01 02:02:55;;;;;;;9.27;3.50;;;4.90;99.90;;;;;;4994388;28;20521;-69
2022/01/01 02:05:21;;;;;;;10.10;3.77;;;5.20;99.90;;;;;;4986024;28;21008;-69
2022/01/01 02:07:49;;;;;;;11.47;4.80;;;5.40;99.90;;;;;;4990075;28;20257;-69
2022/01/01 02:10:15;;;;;;;9.97;4.37;;;5.60;99.90;;;;;;4991900;28;20207;-69
2022/01/01 02:12:42;;;;;;;9.30;3.83;;;5.80;99.90;;;;;;4996287;28;20616;-69
2022/01/01 02:15:26;;;;;;;11.27;3.23;;;6.10;99.90;;;;;;4996047;28;20202;-69
2022/01/01 02:17:54;;;;;;;8.20;3.77;;;6.10;99.90;;;;;;4981212;28;20422;-70
2022/01/01 02:20:21;;;;;;;7.10;3.20;;;6.30;99.90;;;;;;4993521;28;20447;-70
2022/01/01 02:22:48;;;;;;;8.83;3.20;;;6.30;99.90;;;;;;4987597;28;20526;-69
2022/01/01 02:25:19;;;;;;;4.93;3.00;;;6.40;99.90;;;;;;4993577;28;20809;-69
2022/01/01 02:27:46;;;;;;;9.50;3.60;;;6.60;99.90;;;;;;4993997;28;20434;-69
2022/01/01 02:30:15;;;;;;;9.73;4.10;;;6.60;99.90;;;;;;4995064;28;20565;-69
2022/01/01 02:32:41;;;;;;;8.90;4.17;;;6.50;99.90;;;;;;4994080;28;20513;-69
2022/01/01 02:35:10;;;;;;;9.00;3.50;;;6.40;99.90;;;;;;4995799;28;20430;-69
2022/01/01 02:37:37;;;;;;;10.47;4.47;;;6.40;99.90;;;;;;4989063;28;20628;-69
2022/01/01 02:40:03;;;;;;;12.77;4.30;;;6.30;99.90;;;;;;4996895;28;21236;-69
2022/01/01 02:42:29;;;;;;;12.53;3.93;;;6.20;99.90;;;;;;4985258;28;20431;-70
2022/01/01 02:44:54;;;;;;;9.77;4.50;;;6.00;99.90;;;;;;4997809;28;20430;-70
2022/01/01 02:47:21;;;;;;;9.70;4.30;;;6.00;99.90;;;;;;4996349;28;20226;-70
2022/01/01 02:49:46;;;;;;;15.87;5.30;;;6.00;99.90;;;;;;4998747;28;20302;-71
2022/01/01 02:52:12;;;;;;;10.30;5.10;;;5.90;99.90;;;;;;4996924;28;21210;-70
2022/01/01 02:54:38;;;;;;;10.67;4.60;;;5.90;99.90;;;;;;4998536;28;20271;-70
2022/01/01 02:57:04;;;;;;;14.10;5.60;;;5.80;99.90;;;;;;4998931;28;20187;-70
2022/01/01 02:59:30;;;;;;;12.43;6.00;;;5.80;99.90;;;;;;4996035;28;20245;-70
2022/01/01 03:01:55;;;;;;;11.50;4.93;;;5.80;99.90;;;;;;4999498;28;20806;-70
2022/01/01 03:04:21;;;;;;;12.00;5.77;;;6.00;99.90;;;;;;5004416;28;20649;-70
2022/01/01 03:06:53;;;;;;;11.73;5.60;;;6.00;99.90;;;;;;5001557;28;20191;-70
2022/01/01 03:09:19;;;;;;;11.03;4.50;;;6.10;99.90;;;;;;5001423;28;20210;-70
2022/01/01 03:11:45;;;;;;;8.53;4.40;;;6.10;99.90;;;;;;4995698;28;20514;-70
2022/01/01 03:14:12;;;;;;;11.80;6.23;;;6.20;99.90;;;;;;5001943;28;20524;-70
2022/01/01 03:16:38;;;;;;;19.63;4.87;;;6.20;99.90;;;;;;4995789;28;20548;-70
2022/01/01 03:19:03;;;;;;;14.50;4.87;;;6.40;99.90;;;;;;4993018;28;20445;-70
2022/01/01 03:21:29;;;;;;;9.70;4.37;;;6.40;99.90;;;;;;4993668;28;20195;-70
2022/01/01 03:23:55;;;;;;;13.63;5.10;;;6.40;99.90;;;;;;4994087;28;20189;-70
2022/01/01 03:26:20;;;;;;;11.97;5.80;;;6.40;99.90;;;;;;4993902;28;20199;-70
2022/01/01 03:28:46;;;;;;;9.07;4.30;;;6.40;99.90;;;;;;4996317;28;20211;-70
2022/01/01 03:31:12;;;;;;;10.20;4.83;;;6.40;99.90;;;;;;4994617;28;20187;-70
2022/01/01 03:33:37;;;;;;;10.10;4.83;;;6.40;99.90;;;;;;4997598;28;20654;-70
2022/01/01 03:36:04;;;;;;;11.43;4.87;;;6.40;99.90;;;;;;4990762;28;20191;-70
2022/01/01 03:38:30;;;;;;;11.83;5.57;;;6.40;99.90;;;;;;4995226;28;20218;-70
2022/01/01 03:40:56;;;;;;;10.17;5.27;;;6.40;99.90;;;;;;4993236;28;20455;-70
2022/01/01 03:43:21;;;;;;;12.30;5.13;;;6.40;99.90;;;;;;4995542;28;20632;-70
2022/01/01 03:45:47;;;;;;;9.13;5.37;;;6.40;99.90;;;;;;4993620;28;20234;-70
2022/01/01 03:48:13;;;;;;;15.30;5.37;;;6.40;99.90;;;;;;4995429;28;20187;-70
2022/01/01 03:50:38;;;;;;;13.30;5.50;;;6.40;99.90;;;;;;4996212;28;20196;-70
2022/01/01 03:53:04;;;;;;;12.20;4.83;;;6.40;99.90;;;;;;4986822;28;20184;-70
2022/01/01 03:55:30;;;;;;;11.37;5.43;;;6.50;99.90;;;;;;5001400;28;20188;-71
2022/01/01 03:57:55;;;;;;;13.07;6.10;;;6.50;99.90;;;;;;4995195;28;20188;-70
2022/01/01 04:00:21;;;;;;;10.17;5.13;;;6.50;99.90;;;;;;4997259;28;20261;-70
2022/01/01 04:02:47;;;;;;;12.00;5.30;;;6.50;99.90;;;;;;4996827;28;20196;-71
2022/01/01 04:05:13;;;;;;;10.17;5.47;;;6.60;99.90;;;;;;4997951;28;20487;-70
2022/01/01 04:07:38;;;;;;;9.33;3.90;;;6.60;99.90;;;;;;4996598;28;20195;-70
2022/01/01 04:10:04;;;;;;;15.87;5.00;;;6.60;99.90;;;;;;4998399;28;20561;-70
2022/01/01 04:12:30;;;;;;;8.50;4.50;;;6.60;99.90;;;;;;4989150;28;20640;-70
2022/01/01 04:14:57;;;;;;;10.00;3.60;;;6.70;99.90;;;;;;4989137;28;20438;-70
2022/01/01 04:17:23;;;;;;;7.53;3.47;;;6.80;99.90;;;;;;4989334;28;20187;-70
2022/01/01 04:19:49;;;;;;;12.83;3.87;;;6.80;99.90;;;;;;4989946;28;20449;-70
2022/01/01 04:22:16;;;;;;;9.53;3.90;;;6.80;99.90;;;;;;4990894;28;20211;-70
2022/01/01 04:24:42;;;;;;;8.20;3.80;;;6.90;99.90;;;;;;4990621;28;20192;-70
2022/01/01 04:27:08;;;;;;;9.43;3.73;;;7.00;99.90;;;;;;4992276;28;20446;-70
2022/01/01 04:29:34;;;;;;;10.70;4.10;;;7.00;99.90;;;;;;4990090;28;20483;-71
2022/01/01 04:32:01;;;;;;;8.80;3.23;;;7.10;99.90;;;;;;4992858;28;20423;-71
2022/01/01 04:34:27;;;;;;;6.03;2.83;;;7.10;99.90;;;;;;4985224;28;20211;-68
2022/01/01 04:37:11;;;;;;;5.40;2.50;;;7.10;99.90;;;;;;4994140;28;20418;-69
2022/01/01 04:39:38;;;;;;;4.80;2.30;;;7.20;99.90;;;;;;4987651;28;20418;-69
2022/01/01 04:42:03;;;;;;;5.40;2.87;;;7.20;99.90;;;;;;4999607;28;21022;-70
2022/01/01 04:44:29;;;;;;;5.43;2.80;;;7.30;99.90;;;;;;4994009;28;20418;-69
2022/01/01 04:46:55;;;;;;;6.20;2.40;;;7.30;99.90;;;;;;4994137;28;20194;-69
2022/01/01 04:49:22;;;;;;;5.20;2.47;;;7.30;99.90;;;;;;4994253;28;20871;-69
2022/01/01 04:51:49;;;;;;;7.07;2.90;;;7.30;99.90;;;;;;4995392;28;20294;-69
2022/01/01 04:54:16;;;;;;;4.37;2.40;;;7.30;99.90;;;;;;4993689;28;20970;-69
2022/01/01 04:56:47;;;;;;;4.43;2.00;;;7.30;99.90;;;;;;4996386;28;20453;-70
2022/01/01 04:59:15;;;;;;;6.40;2.73;;;7.20;99.90;;;;;;4987894;28;20900;-69
2022/01/01 05:01:41;;;;;;;7.13;3.80;;;7.10;99.90;;;;;;4988243;28;20422;-69
2022/01/01 05:04:08;;;;;;;10.60;2.97;;;7.00;99.90;;;;;;4988550;28;20488;-69
2022/01/01 05:06:34;;;;;;;7.00;3.30;;;6.90;99.90;;;;;;4981614;28;20431;-69
2022/01/01 05:09:00;;;;;;;5.27;2.70;;;6.80;99.90;;;;;;4989370;28;20849;-69
2022/01/01 05:11:26;;;;;;;5.83;3.00;;;6.80;99.90;;;;;;4988195;28;20434;-69
2022/01/01 05:13:52;;;;;;;5.80;3.93;;;6.70;99.90;;;;;;4988066;28;20435;-69
2022/01/01 05:16:19;;;;;;;7.63;3.47;;;6.70;99.90;;;;;;4988774;28;20203;-69
2022/01/01 05:18:45;;;;;;;10.83;3.80;;;6.60;99.90;;;;;;4989572;28;20184;-69
2022/01/01 05:21:12;;;;;;;4.10;2.40;;;6.50;99.90;;;;;;4990852;28;20497;-70
2022/01/01 05:23:37;;;;;;;4.83;2.83;;;6.40;99.90;;;;;;4990251;28;20431;-70
2022/01/01 05:26:03;;;;;;;17.53;3.17;;;6.60;99.90;;;;;;4992002;28;20434;-69
2022/01/01 05:28:29;;;;;;;6.93;3.07;;;6.60;99.90;;;;;;4991337;28;20659;-70
2022/01/01 05:30:55;;;;;;;4.90;2.33;;;6.60;99.90;;;;;;4993723;28;20638;-69
2022/01/01 05:33:20;;;;;;;8.63;3.43;;;6.60;99.90;;;;;;4999333;28;20557;-70
2022/01/01 05:35:46;;;;;;;8.97;3.93;;;6.60;99.90;;;;;;4994762;28;20275;-69
2022/01/01 05:38:11;;;;;;;11.07;3.47;;;6.60;99.90;;;;;;4991988;28;20702;-69
2022/01/01 05:40:37;;;;;;;8.17;3.00;;;6.50;99.90;;;;;;4996529;28;20684;-69
2022/01/01 05:43:03;;;;;;;8.20;4.10;;;6.50;99.90;;;;;;4993106;28;20537;-69
2022/01/01 05:45:28;;;;;;;6.23;3.37;;;6.40;99.90;;;;;;4996563;28;20183;-69
2022/01/01 05:47:54;;;;;;;6.70;3.53;;;6.50;99.90;;;;;;4995147;28;20670;-69
2022/01/01 05:50:20;;;;;;;6.63;3.50;;;6.30;99.90;;;;;;4998820;28;20206;-69
2022/01/01 05:52:46;;;;;;;7.27;4.00;;;6.20;99.90;;;;;;4993009;28;20613;-69
2022/01/01 05:55:12;;;;;;;10.30;4.73;;;6.10;99.90;;;;;;4999327;28;20874;-70
2022/01/01 05:57:38;;;;;;;7.00;3.30;;;6.10;99.90;;;;;;4986911;28;20477;-69
2022/01/01 06:00:07;;;;;;;6.27;3.40;;;6.00;99.90;;;;;;4987410;28;20783;-69
2022/01/01 06:02:43;;;;;;;5.63;3.40;;;5.90;99.90;;;;;;4983340;28;20465;-69
2022/01/01 06:05:09;;;;;;;7.70;3.20;;;5.80;99.90;;;;;;4983581;28;20513;-69
2022/01/01 06:07:35;;;;;;;6.53;2.97;;;5.70;99.90;;;;;;4990520;28;20423;-69
2022/01/01 06:10:02;;;;;;;7.30;3.07;;;5.60;99.90;;;;;;4988745;28;20470;-69
2022/01/01 06:12:28;;;;;;;6.60;3.37;;;5.40;99.90;;;;;;4988021;28;20588;-69
2022/01/01 06:14:54;;;;;;;7.70;4.07;;;5.50;99.90;;;;;;4989066;28;20514;-69
2022/01/01 06:17:19;;;;;;;6.43;2.93;;;5.40;99.90;;;;;;4990608;28;20529;-69
2022/01/01 06:19:45;;;;;;;9.60;4.20;;;5.30;99.90;;;;;;4991788;28;20295;-69
2022/01/01 06:22:11;;;;;;;7.53;4.17;;;5.30;99.90;;;;;;4990682;28;20207;-69
2022/01/01 06:24:37;;;;;;;10.07;4.27;;;5.20;99.90;;;;;;4996869;28;20209;-69
2022/01/01 06:27:03;;;;;;;12.63;3.30;;;5.20;99.90;;;;;;4992562;28;20191;-69
2022/01/01 06:29:28;;;;;;;8.33;4.27;;;5.20;99.90;;;;;;4992374;28;20207;-69
2022/01/01 06:31:54;;;;;;;13.60;4.10;;;5.10;99.90;;;;;;4992852;28;20944;-69
2022/01/01 06:34:20;;;;;;;9.07;3.53;;;5.20;99.90;;;;;;4994150;28;20202;-69
2022/01/01 06:36:45;;;;;;;6.17;3.37;;;5.10;99.90;;;;;;4993106;28;20684;-69
2022/01/01 06:39:11;;;;;;;12.20;3.97;;;5.10;99.90;;;;;;4994954;28;20215;-69
2022/01/01 06:41:37;;;;;;;6.93;3.90;;;5.00;99.90;;;;;;4993649;28;20203;-69
2022/01/01 06:44:03;;;;;;;10.73;4.93;;;5.00;99.90;;;;;;4996326;28;20199;-69
2022/01/01 06:46:28;;;;;;;10.83;3.50;;;5.00;99.90;;;;;;4993461;28;21170;-70
2022/01/01 06:48:54;;;;;;;11.43;4.83;;;5.00;99.90;;;;;;5000136;28;20458;-69
2022/01/01 06:51:20;;;;;;;9.17;5.07;;;5.00;99.90;;;;;;4986013;28;20652;-69
2022/01/01 06:53:45;;;;;;;11.27;5.43;;;5.00;99.90;;;;;;4986890;28;20180;-70
2022/01/01 06:56:11;;;;;;;13.07;5.50;;;5.00;99.90;;;;;;4987263;28;20188;-69
2022/01/01 06:58:38;;;;;;;7.87;4.70;;;5.10;99.90;;;;;;4987465;28;20663;-69
2022/01/01 07:01:04;;;;;;;12.40;4.87;;;5.10;99.90;;;;;;4989095;28;20656;-69
2022/01/01 07:03:30;;;;;;;14.97;6.47;;;5.20;99.90;;;;;;4988279;28;20431;-70
2022/01/01 07:05:56;;;;;;;10.50;4.67;;;5.20;99.90;;;;;;4989423;28;20427;-70
2022/01/01 07:08:21;;;;;;;17.60;7.20;;;5.10;99.90;;;;;;4988552;28;20681;-70
2022/01/01 07:10:47;;;;;;;11.53;4.17;;;5.10;99.90;;;;;;4993561;28;20190;-69
2022/01/01 07:13:14;;;;;;;11.73;5.07;;;5.20;99.90;;;;;;4994109;28;20430;-69
2022/01/01 07:15:40;;;;;;;11.93;4.90;;;5.30;99.90;;;;;;4996876;28;20627;-70
2022/01/01 07:18:06;;;;;;;10.37;4.27;;;5.40;99.90;;;;;;4993917;28;20426;-69
2022/01/01 07:20:31;;;;;;;7.83;4.00;;;5.30;99.90;;;;;;4994610;28;20195;-69
2022/01/01 07:22:57;;;;;;;8.80;3.03;;;5.30;99.90;;;;;;4994741;28;20552;-70
2022/01/01 07:25:23;;;;;;;10.60;4.40;;;5.40;99.90;;;;;;4995268;28;20515;-69
2022/01/01 07:27:49;;;;;;;11.53;4.93;;;5.40;99.90;;;;;;4994509;28;20707;-69
2022/01/01 07:30:14;;;;;;;13.80;4.90;;;5.30;99.90;;;;;;4995336;28;20595;-69
2022/01/01 07:32:46;;;;;;;7.60;4.17;;;5.30;99.90;;;;;;4997042;28;20190;-70
2022/01/01 07:35:13;;;;;;;7.30;3.60;;;5.30;99.90;;;;;;4996134;28;20270;-69
2022/01/01 07:37:39;;;;;;;7.50;4.07;;;5.20;99.90;;;;;;4997593;28;21252;-70
2022/01/01 07:40:08;;;;;;;7.53;3.43;;;5.20;99.90;;;;;;4995982;28;20497;-69
2022/01/01 07:42:34;;;;;;;9.87;3.80;;;5.20;99.90;;;;;;4997327;28;20931;-69
2022/01/01 07:45:00;;;;;;;8.43;3.30;;;5.30;99.90;;;;;;4997397;28;20786;-69
2022/01/01 07:47:26;;;;;;;6.33;3.23;;;5.30;99.90;;;;;;4993027;28;20427;-70
2022/01/01 07:49:52;;;;;;;11.83;2.80;;;5.50;99.90;;;;;;4993609;28;20458;-69
2022/01/01 07:52:17;;;;;;;5.00;3.00;;;5.50;99.90;;;;;;4989951;28;20433;-69
2022/01/01 07:54:43;;;;;;;10.83;3.77;;;5.60;99.90;;;;;;4991348;28;20314;-69
2022/01/01 07:57:09;;;;;;;6.80;3.30;;;5.60;99.90;;;;;;4990488;28;20564;-69
2022/01/01 07:59:35;;;;;;;9.30;3.43;;;5.70;99.90;;;;;;4992088;28;20609;-69
2022/01/01 08:02:01;;;;;;;4.20;2.47;;;5.80;99.90;;;;;;5002752;28;20190;-69
2022/01/01 08:04:26;;;;;;;7.70;3.10;;;5.90;99.90;;;;;;4992978;28;20442;-69
2022/01/01 08:06:52;;;;;;;6.93;3.10;;;5.90;99.90;;;;;;4991464;28;20195;-70
2022/01/01 08:09:17;;;;;;;9.00;3.33;;;5.90;99.90;;;;;;4993441;28;20211;-69
2022/01/01 08:11:43;;;;;;;7.20;2.90;;;5.90;99.90;;;;;;4991008;28;20176;-69
2022/01/01 08:14:09;;;;;;;6.83;3.03;;;5.80;99.90;;;;;;4998530;28;20581;-70
2022/01/01 08:16:53;;;;;;;8.30;3.47;;;5.80;99.90;;;;;;4991835;28;20191;-69
2022/01/01 08:19:19;;;;;;;4.13;2.03;;;5.90;99.90;;;;;;4998119;28;20178;-70
2022/01/01 08:21:45;;;;;;;4.57;2.80;;;5.90;99.90;;;;;;4992042;28;20632;-69
2022/01/01 08:24:10;;;;;;;4.20;2.80;;;6.10;99.90;;;;;;4998037;28;20190;-70
2022/01/01 08:26:36;;;;;;;3.77;2.27;;;6.20;99.90;;;;;;4993304;28;20184;-69
2022/01/01 08:29:02;;;;;;;6.53;2.70;;;6.30;99.90;;;;;;4998512;28;20239;-69
2022/01/01 08:31:27;;;;;;;5.30;2.33;;;6.40;99.90;;;;;;4994109;28;20654;-70
2022/01/01 08:33:53;;;;;;;6.97;2.90;;;6.50;99.90;;;;;;4998606;28;20735;-70
2022/01/01 08:36:18;;;;;;;4.73;2.23;;;6.60;99.90;;;;;;4995547;28;20581;-70
2022/01/01 08:38:44;;;;;;;5.37;2.50;;;6.60;99.90;;;;;;4999423;28;20298;-71
2022/01/01 08:41:10;;;;;;;6.13;2.90;;;6.60;99.90;;;;;;4990417;28;20242;-69
2022/01/01 08:43:36;;;;;;;6.13;2.27;;;6.70;99.90;;;;;;4989028;28;20188;-70
2022/01/01 08:46:02;;;;;;;7.53;3.53;;;6.70;99.90;;;;;;4988976;28;20263;-70
2022/01/01 08:48:27;;;;;;;6.60;3.30;;;6.70;99.90;;;;;;4991925;28;20443;-70
2022/01/01 08:50:53;;;;;;;6.50;3.13;;;6.80;99.90;;;;;;4990020;28;20200;-70
2022/01/01 08:53:19;;;;;;;8.07;3.43;;;6.90;99.90;;;;;;4997191;28;20184;-69
2022/01/01 08:55:44;;;;;;;6.73;2.90;;;6.90;99.90;;;;;;4990129;28;20188;-71
2022/01/01 08:58:10;;;;;;;5.93;2.90;;;7.10;99.90;;;;;;4991904;28;20209;-69
2022/01/01 09:00:36;;;;;;;9.23;4.17;;;7.20;99.90;;;;;;4990808;28;20470;-69
2022/01/01 09:03:01;;;;;;;4.83;2.67;;;7.30;99.90;;;;;;4993092;28;20197;-69
2022/01/01 09:05:27;;;;;;;5.33;2.87;;;7.40;99.90;;;;;;4990723;28;20215;-69
2022/01/01 09:07:53;;;;;;;6.23;2.70;;;7.40;99.90;;;;;;4991821;28;20190;-69
2022/01/01 09:10:20;;;;;;;8.57;3.10;;;7.40;99.90;;;;;;4991713;28;20470;-70
2022/01/01 09:12:46;;;;;;;7.13;2.83;;;7.50;99.90;;;;;;4995774;28;20731;-70
2022/01/01 09:15:12;;;;;;;6.27;2.60;;;7.50;99.90;;;;;;4992506;28;21216;-69
2022/01/01 09:17:38;;;;;;;10.30;4.07;;;7.60;99.90;;;;;;4995324;28;20983;-70
2022/01/01 09:20:04;;;;;;;8.90;2.33;;;7.60;99.90;;;;;;4992713;28;20454;-70
2022/01/01 09:22:29;;;;;;;4.20;2.13;;;7.80;99.90;;;;;;4997936;28;20191;-71
2022/01/01 09:24:55;;;;;;;5.93;3.20;;;7.90;99.90;;;;;;4994402;28;20797;-70
2022/01/01 09:27:21;;;;;;;4.50;2.43;;;8.00;99.90;;;;;;4997802;28;20187;-70
2022/01/01 09:29:47;;;;;;;13.00;2.50;;;8.00;99.90;;;;;;4994075;28;20283;-70
2022/01/01 09:32:12;;;;;;;4.10;1.60;;;7.90;99.90;;;;;;4987097;28;20263;-70
2022/01/01 09:34:38;;;;;;;5.53;2.80;;;8.00;99.90;;;;;;4986923;28;20266;-70
2022/01/01 09:37:04;;;;;;;3.50;1.77;;;8.10;99.90;;;;;;4988717;28;20568;-70
2022/01/01 09:39:30;;;;;;;3.53;2.00;;;8.10;99.90;;;;;;4993491;28;20223;-70
2022/01/01 09:41:56;;;;;;;3.33;1.80;;;8.20;99.90;;;;;;4993782;28;20890;-70
2022/01/01 09:44:22;;;;;;;4.73;2.20;;;8.40;99.90;;;;;;4990065;28;20616;-70
2022/01/01 09:46:50;;;;;;;5.77;1.90;;;8.40;99.90;;;;;;4990303;28;20480;-70
2022/01/01 09:49:16;;;;;;;6.97;2.33;;;8.50;99.90;;;;;;4992387;28;20254;-71
2022/01/01 09:51:43;;;;;;;4.80;2.20;;;8.60;99.90;;;;;;4992772;28;20433;-70
2022/01/01 09:54:10;;;;;;;4.30;1.93;;;8.70;99.90;;;;;;4990028;28;20427;-71
2022/01/01 09:56:36;;;;;;;4.50;2.03;;;8.90;99.90;;;;;;4992786;28;20501;-71
2022/01/01 09:59:02;;;;;;;4.30;2.17;;;9.00;99.90;;;;;;4988234;28;20442;-71
2022/01/01 10:01:28;;;;;;;9.13;2.80;;;9.30;99.90;;;;;;4993442;28;20636;-71
2022/01/01 10:03:56;;;;;;;7.40;1.50;;;9.40;99.90;;;;;;4990552;28;20434;-71
2022/01/01 10:06:22;;;;;;;6.57;1.70;;;9.50;99.90;;;;;;4987307;28;20190;-71
2022/01/01 10:08:56;;;;;;;3.63;1.57;;;9.50;99.90;;;;;;4991494;28;20466;-71
2022/01/01 10:11:22;;;;;;;5.70;2.33;;;9.60;99.90;;;;;;4991664;28;20426;-71
2022/01/01 10:13:48;;;;;;;9.20;3.20;;;9.60;99.90;;;;;;4997662;28;20435;-71
2022/01/01 10:16:15;;;;;;;6.67;2.37;;;9.80;99.90;;;;;;4996513;28;20536;-71
2022/01/01 10:18:43;;;;;;;4.40;2.07;;;9.90;99.90;;;;;;4990985;28;20644;-71
2022/01/01 10:21:12;;;;;;;4.83;2.23;;;10.00;99.90;;;;;;4998354;28;20444;-71
2022/01/01 10:23:40;;;;;;;5.90;2.00;;;10.20;99.90;;;;;;4993830;28;20474;-71
2022/01/01 10:29:23;;;;;;;4.33;1.73;;;10.40;99.90;;;;;;4993573;28;20853;-71
2022/01/01 10:32:01;;;;;;;6.57;2.30;;;10.60;99.90;;;;;;4994710;28;20747;-72
2022/01/01 10:34:35;;;;;;;4.23;1.90;;;10.70;99.90;;;;;;4987646;28;20419;-71
2022/01/01 10:37:03;;;;;;;3.97;1.43;;;10.90;99.90;;;;;;4989290;28;20414;-71
2022/01/01 10:39:29;;;;;;;5.57;1.83;;;11.00;99.90;;;;;;4988810;28;20422;-71
2022/01/01 10:42:06;;;;;;;3.40;1.93;;;11.10;99.90;;;;;;4990648;28;20495;-71
2022/01/01 10:44:34;;;;;;;4.43;2.17;;;11.30;99.90;;;;;;4989674;28;20210;-71
2022/01/01 10:47:25;;;;;;;4.33;1.87;;;11.40;99.90;;;;;;4995464;28;20468;-71
2022/01/01 10:50:14;;;;;;;2.63;1.63;;;11.40;99.90;;;;;;4999473;28;20507;-71
2022/01/01 10:52:48;;;;;;;3.50;1.93;;;11.70;99.90;;;;;;4990568;28;20414;-71
2022/01/01 10:55:15;;;;;;;3.10;1.37;;;11.80;99.90;;;;;;4993811;28;20430;-71
2022/01/01 10:57:51;;;;;;;4.67;1.80;;;11.90;99.90;;;;;;4994723;28;20422;-71
2022/01/01 11:00:23;;;;;;;2.47;1.23;;;12.10;99.90;;;;;;4996851;28;20472;-71
2022/01/01 11:02:53;;;;;;;4.23;1.30;;;12.20;99.90;;;;;;4997662;28;20766;-72
2022/01/01 11:05:35;;;;;;;4.57;1.67;;;12.40;99.90;;;;;;4992561;28;20426;-71
2022/01/01 11:08:03;;;;;;;2.20;0.83;;;12.60;99.90;;;;;;5000999;28;20977;-72
2022/01/01 11:10:29;;;;;;;4.30;1.73;;;12.50;99.90;;;;;;4996016;28;20544;-72
2022/01/01 11:12:56;;;;;;;3.53;1.80;;;12.70;99.90;;;;;;5001052;28;20434;-72
2022/01/01 11:15:22;;;;;;;3.03;1.30;;;12.90;99.90;;;;;;4993841;28;20973;-71
2022/01/01 11:17:49;;;;;;;4.73;1.20;;;12.90;99.90;;;;;;4991886;28;20513;-71
2022/01/01 11:20:16;;;;;;;5.80;1.30;;;12.90;99.90;;;;;;4985385;28;20423;-72
2022/01/01 11:22:43;;;;;;;2.27;0.93;;;12.90;99.90;;;;;;4999725;28;20510;-71
2022/01/01 11:25:09;;;;;;;4.77;2.00;;;13.00;99.90;;;;;;4990533;28;20449;-71
2022/01/01 11:27:35;;;;;;;2.23;1.00;;;13.10;99.90;;;;;;4990039;28;20998;-72
2022/01/01 11:30:10;;;;;;;3.37;1.00;;;13.10;99.90;;;;;;4990791;28;20470;-71
2022/01/01 11:32:45;;;;;;;1.40;0.70;;;13.20;99.90;;;;;;4991334;28;20787;-71
2022/01/01 11:35:17;;;;;;;1.90;0.97;;;13.50;99.90;;;;;;4989907;28;20418;-72
2022/01/01 11:38:06;;;;;;;10.93;0.87;;;13.40;99.90;;;;;;4991796;28;20423;-72
2022/01/01 11:40:58;;;;;;;2.20;1.17;;;13.40;99.90;;;;;;4994341;28;20477;-71
2022/01/01 11:43:46;;;;;;;5.00;1.67;;;13.40;99.90;;;;;;4995212;28;20768;-72
2022/01/01 11:46:43;;;;;;;2.00;0.80;;;13.50;99.90;;;;;;4991945;28;20919;-72
2022/01/01 11:49:26;;;;;;;4.97;1.27;;;13.60;99.90;;;;;;4987273;28;21041;-72
2022/01/01 11:51:54;;;;;;;1.83;0.80;;;13.60;99.90;;;;;;4997185;28;20422;-71
2022/01/01 11:54:25;;;;;;;2.23;1.13;;;13.70;99.90;;;;;;4993388;28;20506;-71
2022/01/01 11:56:51;;;;;;;2.50;1.03;;;13.60;99.90;;;;;;4992803;28;20411;-71
2022/01/01 11:59:30;;;;;;;2.10;1.10;;;13.60;99.90;;;;;;4995228;28;20509;-71
2022/01/01 12:01:59;;;;;;;2.90;1.37;;;13.70;99.90;;;;;;4997540;28;20198;-71
2022/01/01 12:04:43;;;;;;;2.13;1.07;;;13.70;99.90;;;;;;4996572;28;21041;-71
2022/01/01 12:07:20;;;;;;;3.17;0.90;;;13.60;99.90;;;;;;4995098;28;20440;-71
2022/01/01 12:10:02;;;;;;;7.13;1.97;;;13.60;99.90;;;;;;4997594;28;20850;-70
2022/01/01 12:12:48;;;;;;;4.30;1.80;;;13.50;99.90;;;;;;4994377;28;20453;-71
2022/01/01 12:15:51;;;;;;;4.10;1.43;;;13.50;99.90;;;;;;4989441;28;20426;-70
2022/01/01 12:18:22;;;;;;;3.47;1.17;;;13.40;99.90;;;;;;4989166;28;20426;-71
2022/01/01 12:21:02;;;;;;;1.97;0.90;;;13.40;99.90;;;;;;4990135;28;20435;-70
2022/01/01 12:23:34;;;;;;;4.07;2.17;;;13.30;99.90;;;;;;4990039;28;20720;-71
2022/01/01 12:25:59;;;;;;;2.70;1.10;;;13.20;99.90;;;;;;4991418;28;20423;-70
2022/01/01 12:28:32;;;;;;;3.20;1.53;;;13.10;99.90;;;;;;4991013;28;20449;-70
2022/01/01 12:31:10;;;;;;;3.07;1.50;;;13.00;99.90;;;;;;4991070;28;20196;-71
2022/01/01 12:33:36;;;;;;;2.57;1.30;;;13.00;99.90;;;;;;4993549;28;20550;-70
2022/01/01 12:36:06;;;;;;;4.13;1.57;;;13.00;99.90;;;;;;4990344;28;20536;-70
2022/01/01 12:38:33;;;;;;;2.60;1.30;;;13.00;99.90;;;;;;4998625;28;20195;-71
2022/01/01 12:41:19;;;;;;;8.00;2.30;;;13.00;99.90;;;;;;4991447;28;20955;-71
2022/01/01 12:43:49;;;;;;;1.90;0.87;;;12.90;99.90;;;;;;4995180;28;20414;-70
2022/01/01 12:46:18;;;;;;;5.00;1.50;;;12.90;99.90;;;;;;4991292;28;20426;-71
2022/01/01 12:48:44;;;;;;;4.00;1.57;;;12.90;99.90;;;;;;4987943;28;20426;-70
2022/01/01 12:51:15;;;;;;;2.73;1.23;;;12.90;99.90;;;;;;4986492;28;20427;-71
2022/01/01 12:53:42;;;;;;;2.33;0.60;;;12.90;99.90;;;;;;4989919;28;20886;-71
2022/01/01 12:56:15;;;;;;;2.60;1.07;;;12.80;99.90;;;;;;4993733;28;20568;-70
2022/01/01 12:58:45;;;;;;;2.20;1.50;;;12.70;99.90;;;;;;4992443;28;20557;-70
2022/01/01 13:01:18;;;;;;;4.10;1.77;;;12.70;99.90;;;;;;5001087;28;20415;-71